sensor_id;sensor_type;location;lat;lon;timestamp;P1;durP1;ratioP1;P2;durP2;ratioP2
36839;SDS011;24406;51.640;9.566;2023-08-06T00:00:55;5.95;;;5.20;;
36839;SDS011;24406;51.640;9.566;2023-08-06T00:05:57;5.32;;;4.90;;
36839;SDS011;24406;51.640;9.566;2023-08-06T00:11:00;5.57;;;5.10;;
36839;SDS011;24406;51.640;9.566;2023-08-06T00:16:09;5.50;;;5.00;;
36839;SDS011;24406;51.640;9.566;2023-08-06T00:21:11;5.45;;;5.05;;
36839;SDS011;24406;51.640;9.566;2023-08-06T00:26:16;7.05;;;4.88;;
36839;SDS011;24406;51.640;9.566;2023-08-06T00:31:18;5.18;;;4.78;;
36839;SDS011;24406;51.640;9.566;2023-08-06T00:36:20;9.43;;;4.20;;
36839;SDS011;24406;51.640;9.566;2023-08-06T00:41:23;4.75;;;4.18;;
36839;SDS011;24406;51.640;9.566;2023-08-06T00:46:25;4.40;;;4.05;;
36839;SDS011;24406;51.640;9.566;2023-08-06T00:51:27;6.75;;;4.13;;
36839;SDS011;24406;51.640;9.566;2023-08-06T00:56:31;4.90;;;4.40;;
36839;SDS011;24406;51.640;9.566;2023-08-06T01:01:34;4.55;;;4.03;;
36839;SDS011;24406;51.640;9.566;2023-08-06T01:06:38;8.30;;;3.97;;
36839;SDS011;24406;51.640;9.566;2023-08-06T01:11:44;6.97;;;4.18;;
36839;SDS011;24406;51.640;9.566;2023-08-06T01:16:53;3.97;;;3.58;;
36839;SDS011;24406;51.640;9.566;2023-08-06T01:21:57;4.20;;;3.83;;
36839;SDS011;24406;51.640;9.566;2023-08-06T01:27:00;3.80;;;3.50;;
36839;SDS011;24406;51.640;9.566;2023-08-06T01:32:06;6.50;;;4.68;;
36839;SDS011;24406;51.640;9.566;2023-08-06T01:37:11;9.95;;;4.28;;
36839;SDS011;24406;51.640;9.566;2023-08-06T01:42:13;4.30;;;4.00;;
36839;SDS011;24406;51.640;9.566;2023-08-06T01:47:15;9.75;;;4.07;;
36839;SDS011;24406;51.640;9.566;2023-08-06T01:52:17;6.70;;;4.30;;
36839;SDS011;24406;51.640;9.566;2023-08-06T01:57:19;4.90;;;4.40;;
36839;SDS011;24406;51.640;9.566;2023-08-06T02:02:21;7.28;;;4.85;;
36839;SDS011;24406;51.640;9.566;2023-08-06T02:07:24;7.45;;;4.60;;
36839;SDS011;24406;51.640;9.566;2023-08-06T02:12:25;6.15;;;5.05;;
36839;SDS011;24406;51.640;9.566;2023-08-06T02:17:27;5.85;;;4.70;;
36839;SDS011;24406;51.640;9.566;2023-08-06T02:22:30;8.07;;;5.10;;
36839;SDS011;24406;51.640;9.566;2023-08-06T02:27:31;7.38;;;4.53;;
36839;SDS011;24406;51.640;9.566;2023-08-06T02:32:33;9.50;;;4.80;;
36839;SDS011;24406;51.640;9.566;2023-08-06T02:37:37;6.78;;;5.13;;
36839;SDS011;24406;51.640;9.566;2023-08-06T02:42:38;5.32;;;4.68;;
36839;SDS011;24406;51.640;9.566;2023-08-06T02:47:40;5.50;;;4.15;;
36839;SDS011;24406;51.640;9.566;2023-08-06T02:52:43;9.38;;;4.53;;
36839;SDS011;24406;51.640;9.566;2023-08-06T02:57:45;5.80;;;4.30;;
36839;SDS011;24406;51.640;9.566;2023-08-06T03:02:47;4.70;;;4.30;;
36839;SDS011;24406;51.640;9.566;2023-08-06T03:07:59;8.98;;;4.50;;
36839;SDS011;24406;51.640;9.566;2023-08-06T03:13:03;4.55;;;3.90;;
36839;SDS011;24406;51.640;9.566;2023-08-06T03:18:05;4.38;;;4.07;;
36839;SDS011;24406;51.640;9.566;2023-08-06T03:23:08;4.32;;;3.90;;
36839;SDS011;24406;51.640;9.566;2023-08-06T03:28:11;8.25;;;4.70;;
36839;SDS011;24406;51.640;9.566;2023-08-06T03:33:13;8.05;;;4.97;;
36839;SDS011;24406;51.640;9.566;2023-08-06T03:38:16;5.93;;;4.30;;
36839;SDS011;24406;51.640;9.566;2023-08-06T03:43:17;7.65;;;4.70;;
36839;SDS011;24406;51.640;9.566;2023-08-06T03:48:20;4.53;;;4.13;;
36839;SDS011;24406;51.640;9.566;2023-08-06T03:53:23;6.13;;;4.93;;
36839;SDS011;24406;51.640;9.566;2023-08-06T03:58:25;9.73;;;5.15;;
36839;SDS011;24406;51.640;9.566;2023-08-06T04:03:27;6.88;;;5.75;;
36839;SDS011;24406;51.640;9.566;2023-08-06T04:08:30;11.55;;;5.65;;
36839;SDS011;24406;51.640;9.566;2023-08-06T04:13:32;5.30;;;4.78;;
36839;SDS011;24406;51.640;9.566;2023-08-06T04:18:33;6.10;;;4.57;;
36839;SDS011;24406;51.640;9.566;2023-08-06T04:23:36;10.63;;;4.50;;
36839;SDS011;24406;51.640;9.566;2023-08-06T04:28:41;4.85;;;3.50;;
36839;SDS011;24406;51.640;9.566;2023-08-06T04:33:43;5.20;;;3.88;;
36839;SDS011;24406;51.640;9.566;2023-08-06T04:38:48;8.65;;;4.20;;
36839;SDS011;24406;51.640;9.566;2023-08-06T04:43:50;5.20;;;4.70;;
36839;SDS011;24406;51.640;9.566;2023-08-06T04:48:52;9.80;;;5.25;;
36839;SDS011;24406;51.640;9.566;2023-08-06T04:53:56;7.63;;;4.55;;
36839;SDS011;24406;51.640;9.566;2023-08-06T04:58:58;6.78;;;5.25;;
36839;SDS011;24406;51.640;9.566;2023-08-06T05:04:00;5.40;;;4.90;;
36839;SDS011;24406;51.640;9.566;2023-08-06T05:09:03;6.22;;;5.68;;
36839;SDS011;24406;51.640;9.566;2023-08-06T05:14:06;8.18;;;4.97;;
36839;SDS011;24406;51.640;9.566;2023-08-06T05:19:07;4.70;;;4.30;;
36839;SDS011;24406;51.640;9.566;2023-08-06T05:24:10;5.00;;;4.50;;
36839;SDS011;24406;51.640;9.566;2023-08-06T05:29:12;5.10;;;4.60;;
36839;SDS011;24406;51.640;9.566;2023-08-06T05:34:13;4.63;;;4.30;;
36839;SDS011;24406;51.640;9.566;2023-08-06T05:39:16;5.80;;;4.75;;
36839;SDS011;24406;51.640;9.566;2023-08-06T05:44:18;5.15;;;3.83;;
36839;SDS011;24406;51.640;9.566;2023-08-06T05:49:19;4.07;;;3.63;;
36839;SDS011;24406;51.640;9.566;2023-08-06T05:54:22;4.45;;;3.88;;
36839;SDS011;24406;51.640;9.566;2023-08-06T05:59:24;4.30;;;3.90;;
36839;SDS011;24406;51.640;9.566;2023-08-06T06:04:25;4.55;;;4.15;;
36839;SDS011;24406;51.640;9.566;2023-08-06T06:09:28;3.90;;;3.40;;
36839;SDS011;24406;51.640;9.566;2023-08-06T06:14:30;3.20;;;2.97;;
36839;SDS011;24406;51.640;9.566;2023-08-06T06:19:31;3.22;;;3.03;;
36839;SDS011;24406;51.640;9.566;2023-08-06T06:24:34;2.97;;;2.75;;
36839;SDS011;24406;51.640;9.566;2023-08-06T06:29:36;3.33;;;3.03;;
36839;SDS011;24406;51.640;9.566;2023-08-06T06:34:37;3.13;;;2.92;;
36839;SDS011;24406;51.640;9.566;2023-08-06T06:39:40;4.97;;;3.30;;
36839;SDS011;24406;51.640;9.566;2023-08-06T06:44:42;3.95;;;2.60;;
36839;SDS011;24406;51.640;9.566;2023-08-06T06:49:43;3.17;;;2.65;;
36839;SDS011;24406;51.640;9.566;2023-08-06T06:54:46;3.15;;;2.90;;
36839;SDS011;24406;51.640;9.566;2023-08-06T06:59:56;4.38;;;2.75;;
36839;SDS011;24406;51.640;9.566;2023-08-06T07:17:15;3.37;;;2.67;;
36839;SDS011;24406;51.640;9.566;2023-08-06T07:22:29;2.88;;;2.60;;
36839;SDS011;24406;51.640;9.566;2023-08-06T07:27:33;4.85;;;2.80;;
36839;SDS011;24406;51.640;9.566;2023-08-06T07:32:34;2.85;;;2.50;;
36839;SDS011;24406;51.640;9.566;2023-08-06T07:37:36;2.92;;;2.67;;
36839;SDS011;24406;51.640;9.566;2023-08-06T07:42:39;3.20;;;2.90;;
36839;SDS011;24406;51.640;9.566;2023-08-06T07:47:40;2.65;;;2.45;;
36839;SDS011;24406;51.640;9.566;2023-08-06T07:52:43;3.08;;;2.58;;
36839;SDS011;24406;51.640;9.566;2023-08-06T07:57:45;4.30;;;2.40;;
36839;SDS011;24406;51.640;9.566;2023-08-06T08:02:47;2.65;;;2.30;;
36839;SDS011;24406;51.640;9.566;2023-08-06T08:07:49;2.08;;;1.98;;
36839;SDS011;24406;51.640;9.566;2023-08-06T08:12:52;3.38;;;2.80;;
36839;SDS011;24406;51.640;9.566;2023-08-06T08:17:53;2.75;;;2.55;;
36839;SDS011;24406;51.640;9.566;2023-08-06T08:22:55;3.85;;;2.95;;
36839;SDS011;24406;51.640;9.566;2023-08-06T08:27:58;3.80;;;2.97;;
36839;SDS011;24406;51.640;9.566;2023-08-06T08:32:59;4.00;;;2.60;;
36839;SDS011;24406;51.640;9.566;2023-08-06T08:38:01;2.55;;;2.35;;
36839;SDS011;24406;51.640;9.566;2023-08-06T08:43:05;3.33;;;2.65;;
36839;SDS011;24406;51.640;9.566;2023-08-06T08:48:06;2.60;;;2.40;;
36839;SDS011;24406;51.640;9.566;2023-08-06T08:53:08;5.57;;;2.20;;
36839;SDS011;24406;51.640;9.566;2023-08-06T08:58:13;3.20;;;2.90;;
36839;SDS011;24406;51.640;9.566;2023-08-06T09:03:15;3.25;;;2.45;;
36839;SDS011;24406;51.640;9.566;2023-08-06T09:08:20;3.65;;;2.20;;
36839;SDS011;24406;51.640;9.566;2023-08-06T09:13:46;3.78;;;2.45;;
36839;SDS011;24406;51.640;9.566;2023-08-06T09:18:48;3.30;;;2.30;;
36839;SDS011;24406;51.640;9.566;2023-08-06T09:23:50;3.13;;;2.05;;
36839;SDS011;24406;51.640;9.566;2023-08-06T09:28:53;4.65;;;2.30;;
36839;SDS011;24406;51.640;9.566;2023-08-06T09:33:55;4.70;;;2.33;;
36839;SDS011;24406;51.640;9.566;2023-08-06T09:38:56;4.20;;;2.15;;
36839;SDS011;24406;51.640;9.566;2023-08-06T09:43:59;5.25;;;2.30;;
36839;SDS011;24406;51.640;9.566;2023-08-06T09:49:03;5.00;;;3.00;;
36839;SDS011;24406;51.640;9.566;2023-08-06T09:54:08;2.20;;;2.00;;
36839;SDS011;24406;51.640;9.566;2023-08-06T09:59:14;2.83;;;1.80;;
36839;SDS011;24406;51.640;9.566;2023-08-06T10:04:16;3.95;;;3.55;;
36839;SDS011;24406;51.640;9.566;2023-08-06T10:09:18;2.28;;;1.80;;
36839;SDS011;24406;51.640;9.566;2023-08-06T10:14:23;3.72;;;1.75;;
36839;SDS011;24406;51.640;9.566;2023-08-06T10:19:26;3.40;;;1.70;;
36839;SDS011;24406;51.640;9.566;2023-08-06T10:24:28;1.48;;;1.38;;
36839;SDS011;24406;51.640;9.566;2023-08-06T10:35:04;2.25;;;1.65;;
36839;SDS011;24406;51.640;9.566;2023-08-06T10:40:12;1.90;;;1.52;;
36839;SDS011;24406;51.640;9.566;2023-08-06T10:56:32;3.05;;;1.70;;
36839;SDS011;24406;51.640;9.566;2023-08-06T11:01:48;2.15;;;1.60;;
36839;SDS011;24406;51.640;9.566;2023-08-06T11:06:53;1.60;;;1.50;;
36839;SDS011;24406;51.640;9.566;2023-08-06T11:11:57;1.65;;;1.50;;
36839;SDS011;24406;51.640;9.566;2023-08-06T11:17:16;2.03;;;1.83;;
36839;SDS011;24406;51.640;9.566;2023-08-06T11:45:56;2.10;;;1.67;;
36839;SDS011;24406;51.640;9.566;2023-08-06T11:51:00;2.58;;;1.70;;
36839;SDS011;24406;51.640;9.566;2023-08-06T11:56:01;1.98;;;1.75;;
36839;SDS011;24406;51.640;9.566;2023-08-06T12:01:25;1.83;;;1.50;;
36839;SDS011;24406;51.640;9.566;2023-08-06T12:11:59;1.23;;;1.13;;
36839;SDS011;24406;51.640;9.566;2023-08-06T12:17:01;1.35;;;1.20;;
36839;SDS011;24406;51.640;9.566;2023-08-06T12:22:04;2.40;;;1.25;;
36839;SDS011;24406;51.640;9.566;2023-08-06T12:27:06;1.30;;;1.20;;
36839;SDS011;24406;51.640;9.566;2023-08-06T12:32:07;1.75;;;1.65;;
36839;SDS011;24406;51.640;9.566;2023-08-06T12:37:10;4.00;;;1.58;;
36839;SDS011;24406;51.640;9.566;2023-08-06T12:42:12;1.60;;;1.50;;
36839;SDS011;24406;51.640;9.566;2023-08-06T12:47:13;2.15;;;1.60;;
36839;SDS011;24406;51.640;9.566;2023-08-06T12:52:16;4.88;;;1.45;;
36839;SDS011;24406;51.640;9.566;2023-08-06T12:57:19;2.00;;;1.60;;
36839;SDS011;24406;51.640;9.566;2023-08-06T13:02:21;1.48;;;1.38;;
36839;SDS011;24406;51.640;9.566;2023-08-06T13:07:24;2.53;;;1.40;;
36839;SDS011;24406;51.640;9.566;2023-08-06T13:12:25;2.75;;;1.73;;
36839;SDS011;24406;51.640;9.566;2023-08-06T13:17:27;4.05;;;1.75;;
36839;SDS011;24406;51.640;9.566;2023-08-06T13:22:30;1.67;;;1.50;;
36839;SDS011;24406;51.640;9.566;2023-08-06T13:27:31;2.78;;;1.45;;
36839;SDS011;24406;51.640;9.566;2023-08-06T13:32:33;2.95;;;1.48;;
36839;SDS011;24406;51.640;9.566;2023-08-06T13:37:38;4.88;;;1.60;;
36839;SDS011;24406;51.640;9.566;2023-08-06T13:42:39;3.08;;;1.63;;
36839;SDS011;24406;51.640;9.566;2023-08-06T13:47:41;2.67;;;2.03;;
36839;SDS011;24406;51.640;9.566;2023-08-06T13:52:44;2.78;;;2.00;;
36839;SDS011;24406;51.640;9.566;2023-08-06T13:57:45;2.50;;;2.00;;
36839;SDS011;24406;51.640;9.566;2023-08-06T14:02:50;4.10;;;2.22;;
36839;SDS011;24406;51.640;9.566;2023-08-06T14:07:58;2.97;;;2.30;;
36839;SDS011;24406;51.640;9.566;2023-08-06T14:13:00;3.53;;;2.60;;
36839;SDS011;24406;51.640;9.566;2023-08-06T14:18:02;5.60;;;2.40;;
36839;SDS011;24406;51.640;9.566;2023-08-06T14:28:47;7.13;;;3.35;;
36839;SDS011;24406;51.640;9.566;2023-08-06T14:34:31;5.80;;;3.58;;
36839;SDS011;24406;51.640;9.566;2023-08-06T14:39:34;3.55;;;2.72;;
36839;SDS011;24406;51.640;9.566;2023-08-06T14:44:53;4.38;;;2.70;;
36839;SDS011;24406;51.640;9.566;2023-08-06T14:50:05;7.53;;;4.80;;
36839;SDS011;24406;51.640;9.566;2023-08-06T14:55:12;9.00;;;4.80;;
36839;SDS011;24406;51.640;9.566;2023-08-06T15:00:19;12.55;;;4.38;;
36839;SDS011;24406;51.640;9.566;2023-08-06T15:05:32;13.05;;;4.60;;
36839;SDS011;24406;51.640;9.566;2023-08-06T15:10:53;4.43;;;4.00;;
36839;SDS011;24406;51.640;9.566;2023-08-06T15:16:15;5.40;;;3.78;;
36839;SDS011;24406;51.640;9.566;2023-08-06T15:21:21;4.68;;;3.17;;
36839;SDS011;24406;51.640;9.566;2023-08-06T15:26:34;5.00;;;3.60;;
36839;SDS011;24406;51.640;9.566;2023-08-06T15:31:39;5.05;;;3.47;;
36839;SDS011;24406;51.640;9.566;2023-08-06T15:36:41;4.93;;;2.92;;
36839;SDS011;24406;51.640;9.566;2023-08-06T15:41:44;5.95;;;3.17;;
36839;SDS011;24406;51.640;9.566;2023-08-06T15:46:51;3.63;;;3.33;;
36839;SDS011;24406;51.640;9.566;2023-08-06T15:51:55;4.82;;;3.50;;
36839;SDS011;24406;51.640;9.566;2023-08-06T15:56:59;5.28;;;3.88;;
36839;SDS011;24406;51.640;9.566;2023-08-06T16:02:07;4.45;;;4.05;;
36839;SDS011;24406;51.640;9.566;2023-08-06T16:07:27;5.10;;;4.45;;
36839;SDS011;24406;51.640;9.566;2023-08-06T16:12:37;4.45;;;4.05;;
36839;SDS011;24406;51.640;9.566;2023-08-06T16:17:45;4.72;;;3.53;;
36839;SDS011;24406;51.640;9.566;2023-08-06T16:22:47;3.50;;;3.20;;
36839;SDS011;24406;51.640;9.566;2023-08-06T16:27:50;3.42;;;3.13;;
36839;SDS011;24406;51.640;9.566;2023-08-06T16:33:00;3.45;;;3.15;;
36839;SDS011;24406;51.640;9.566;2023-08-06T16:38:22;4.25;;;3.30;;
36839;SDS011;24406;51.640;9.566;2023-08-06T16:43:26;4.78;;;3.35;;
36839;SDS011;24406;51.640;9.566;2023-08-06T16:48:37;3.58;;;2.55;;
36839;SDS011;24406;51.640;9.566;2023-08-06T16:53:56;3.00;;;2.70;;
36839;SDS011;24406;51.640;9.566;2023-08-06T16:58:59;4.82;;;2.60;;
36839;SDS011;24406;51.640;9.566;2023-08-06T17:04:01;3.25;;;2.33;;
36839;SDS011;24406;51.640;9.566;2023-08-06T17:09:08;3.92;;;2.60;;
36839;SDS011;24406;51.640;9.566;2023-08-06T17:14:15;2.50;;;2.30;;
36839;SDS011;24406;51.640;9.566;2023-08-06T17:19:31;2.05;;;1.95;;
36839;SDS011;24406;51.640;9.566;2023-08-06T17:24:33;1.85;;;1.75;;
36839;SDS011;24406;51.640;9.566;2023-08-06T17:29:50;3.30;;;2.00;;
36839;SDS011;24406;51.640;9.566;2023-08-06T17:34:57;2.05;;;1.75;;
36839;SDS011;24406;51.640;9.566;2023-08-06T17:40:26;2.05;;;1.60;;
36839;SDS011;24406;51.640;9.566;2023-08-06T17:45:30;2.30;;;2.10;;
36839;SDS011;24406;51.640;9.566;2023-08-06T17:50:31;3.47;;;2.08;;
36839;SDS011;24406;51.640;9.566;2023-08-06T17:55:33;2.17;;;2.00;;
36839;SDS011;24406;51.640;9.566;2023-08-06T18:00:36;3.05;;;1.98;;
36839;SDS011;24406;51.640;9.566;2023-08-06T18:05:41;2.90;;;1.83;;
36839;SDS011;24406;51.640;9.566;2023-08-06T18:11:40;1.40;;;1.30;;
36839;SDS011;24406;51.640;9.566;2023-08-06T18:17:19;1.50;;;1.40;;
36839;SDS011;24406;51.640;9.566;2023-08-06T18:23:12;2.65;;;1.63;;
36839;SDS011;24406;51.640;9.566;2023-08-06T18:28:22;1.70;;;1.60;;
36839;SDS011;24406;51.640;9.566;2023-08-06T18:33:35;3.13;;;1.70;;
36839;SDS011;24406;51.640;9.566;2023-08-06T18:39:06;1.75;;;1.50;;
36839;SDS011;24406;51.640;9.566;2023-08-06T18:44:23;1.63;;;1.52;;
36839;SDS011;24406;51.640;9.566;2023-08-06T18:55:02;1.20;;;1.13;;
36839;SDS011;24406;51.640;9.566;2023-08-06T19:00:11;1.10;;;1.10;;
36839;SDS011;24406;51.640;9.566;2023-08-06T19:05:24;1.42;;;1.33;;
36839;SDS011;24406;51.640;9.566;2023-08-06T19:10:39;1.42;;;1.33;;
36839;SDS011;24406;51.640;9.566;2023-08-06T19:21:04;1.77;;;1.67;;
36839;SDS011;24406;51.640;9.566;2023-08-06T19:26:39;1.85;;;1.25;;
36839;SDS011;24406;51.640;9.566;2023-08-06T19:31:32;2.05;;;1.40;;
36839;SDS011;24406;51.640;9.566;2023-08-06T19:36:39;4.40;;;2.08;;
36839;SDS011;24406;51.640;9.566;2023-08-06T19:41:46;1.63;;;1.40;;
36839;SDS011;24406;51.640;9.566;2023-08-06T19:46:55;1.88;;;1.70;;
36839;SDS011;24406;51.640;9.566;2023-08-06T19:52:29;1.85;;;1.75;;
36839;SDS011;24406;51.640;9.566;2023-08-06T19:57:45;2.90;;;2.22;;
36839;SDS011;24406;51.640;9.566;2023-08-06T20:02:47;1.77;;;1.67;;
36839;SDS011;24406;51.640;9.566;2023-08-06T20:07:58;2.30;;;2.00;;
36839;SDS011;24406;51.640;9.566;2023-08-06T20:13:16;2.30;;;2.10;;
36839;SDS011;24406;51.640;9.566;2023-08-06T20:18:21;2.33;;;2.10;;
36839;SDS011;24406;51.640;9.566;2023-08-06T20:24:01;2.40;;;2.20;;
36839;SDS011;24406;51.640;9.566;2023-08-06T20:29:23;1.85;;;1.75;;
36839;SDS011;24406;51.640;9.566;2023-08-06T20:34:38;1.55;;;1.45;;
36839;SDS011;24406;51.640;9.566;2023-08-06T20:39:59;2.00;;;1.48;;
36839;SDS011;24406;51.640;9.566;2023-08-06T20:45:12;2.00;;;1.60;;
36839;SDS011;24406;51.640;9.566;2023-08-06T20:50:58;3.80;;;1.60;;
36839;SDS011;24406;51.640;9.566;2023-08-06T20:56:26;1.88;;;1.45;;
36839;SDS011;24406;51.640;9.566;2023-08-06T21:01:46;1.40;;;1.30;;
36839;SDS011;24406;51.640;9.566;2023-08-06T21:07:12;1.60;;;1.00;;
36839;SDS011;24406;51.640;9.566;2023-08-06T21:12:30;1.30;;;1.20;;
36839;SDS011;24406;51.640;9.566;2023-08-06T21:24:03;0.98;;;0.98;;
36839;SDS011;24406;51.640;9.566;2023-08-06T21:29:51;3.40;;;0.80;;
36839;SDS011;24406;51.640;9.566;2023-08-06T21:35:20;1.77;;;0.93;;
36839;SDS011;24406;51.640;9.566;2023-08-06T21:40:48;1.20;;;0.80;;
36839;SDS011;24406;51.640;9.566;2023-08-06T21:59:09;1.05;;;1.02;;
36839;SDS011;24406;51.640;9.566;2023-08-06T22:04:48;0.90;;;0.90;;
36839;SDS011;24406;51.640;9.566;2023-08-06T22:10:21;1.60;;;0.85;;
36839;SDS011;24406;51.640;9.566;2023-08-06T22:15:31;1.63;;;1.02;;
36839;SDS011;24406;51.640;9.566;2023-08-06T22:20:34;1.50;;;0.93;;
36839;SDS011;24406;51.640;9.566;2023-08-06T22:25:37;2.05;;;1.05;;
36839;SDS011;24406;51.640;9.566;2023-08-06T22:30:39;1.85;;;1.10;;
36839;SDS011;24406;51.640;9.566;2023-08-06T22:35:41;1.50;;;1.40;;
36839;SDS011;24406;51.640;9.566;2023-08-06T22:40:44;2.58;;;2.05;;
36839;SDS011;24406;51.640;9.566;2023-08-06T22:45:45;4.57;;;2.85;;
36839;SDS011;24406;51.640;9.566;2023-08-06T22:50:47;4.00;;;3.53;;
36839;SDS011;24406;51.640;9.566;2023-08-06T22:55:49;4.53;;;3.97;;
36839;SDS011;24406;51.640;9.566;2023-08-06T23:00:51;6.90;;;4.72;;
36839;SDS011;24406;51.640;9.566;2023-08-06T23:05:54;9.02;;;4.55;;
36839;SDS011;24406;51.640;9.566;2023-08-06T23:10:57;7.63;;;5.28;;
36839;SDS011;24406;51.640;9.566;2023-08-06T23:16:01;8.50;;;5.20;;
36839;SDS011;24406;51.640;9.566;2023-08-06T23:21:02;7.07;;;5.55;;
36839;SDS011;24406;51.640;9.566;2023-08-06T23:26:05;5.30;;;4.20;;
36839;SDS011;24406;51.640;9.566;2023-08-06T23:31:07;3.92;;;3.50;;
36839;SDS011;24406;51.640;9.566;2023-08-06T23:36:08;5.68;;;3.13;;
36839;SDS011;24406;51.640;9.566;2023-08-06T23:41:11;6.03;;;3.63;;
36839;SDS011;24406;51.640;9.566;2023-08-06T23:46:13;3.85;;;2.90;;
36839;SDS011;24406;51.640;9.566;2023-08-06T23:51:14;6.85;;;3.80;;
36839;SDS011;24406;51.640;9.566;2023-08-06T23:56:17;4.55;;;3.83;;
